createdAt,value
2022-09-05T00:02:33.455Z,100916.00
2022-09-05T00:05:26.233Z,100911.72
2022-09-05T00:08:03.534Z,100911.88
2022-09-05T00:11:39.601Z,100910.41
2022-09-05T00:13:33.388Z,100912.72
2022-09-05T00:16:30.307Z,100912.84
2022-09-05T00:23:38.686Z,100911.03
2022-09-05T00:24:29.812Z,100908.56
2022-09-05T00:25:32.298Z,100915.78
2022-09-05T00:28:26.100Z,100904.31
2022-09-05T00:31:56.141Z,100908.84
2022-09-05T00:34:47.465Z,100912.66
2022-09-05T00:37:31.980Z,100910.09
2022-09-05T00:40:18.999Z,100904.78
2022-09-05T00:42:51.127Z,100907.56
2022-09-05T00:45:27.359Z,100905.78
2022-09-05T00:48:04.615Z,100908.75
2022-09-05T00:50:43.233Z,100904.44
2022-09-05T00:53:19.550Z,100901.66
2022-09-05T00:55:59.010Z,100899.13
2022-09-05T00:58:52.119Z,100891.47
2022-09-05T01:01:31.714Z,100895.03
2022-09-05T01:04:20.463Z,100889.28
2022-09-05T01:07:07.894Z,100886.50
2022-09-05T01:09:48.963Z,100879.41
2022-09-05T01:12:32.714Z,100878.34
2022-09-05T01:15:32.101Z,100878.63
2022-09-05T01:18:22.793Z,100872.88
2022-09-05T01:21:18.936Z,100881.53
2022-09-05T01:24:17.512Z,100884.41
2022-09-05T01:27:56.216Z,100884.69
2022-09-05T01:30:36.832Z,100880.19
2022-09-05T01:33:20.307Z,100877.28
2022-09-05T01:36:33.673Z,100877.66
2022-09-05T01:39:55.133Z,100882.19
2022-09-05T01:42:06.093Z,100883.69
2022-09-05T01:44:48.262Z,100875.13
2022-09-05T01:47:29.409Z,100878.50
2022-09-05T01:50:10.533Z,100874.41
2022-09-05T01:53:04.146Z,100877.75
2022-09-05T01:56:04.421Z,100872.50
2022-09-05T01:58:47.762Z,100867.22
2022-09-05T02:01:32.567Z,100862.72
2022-09-05T02:04:29.038Z,100859.13
2022-09-05T02:07:20.025Z,100858.13
2022-09-05T02:10:32.038Z,100857.22
2022-09-05T02:13:12.407Z,100868.09
2022-09-05T02:15:59.450Z,100858.22
2022-09-05T02:18:47.437Z,100865.66
2022-09-05T02:21:25.248Z,100866.09
2022-09-05T02:24:03.775Z,100869.28
2022-09-05T02:26:35.695Z,100862.06
2022-09-05T02:29:13.022Z,100864.38
2022-09-05T02:32:04.286Z,100862.44
2022-09-05T02:34:42.459Z,100869.75
2022-09-05T02:37:33.760Z,100863.09
2022-09-05T02:45:01.379Z,100858.06
2022-09-05T02:45:07.126Z,100853.66
2022-09-05T02:46:15.743Z,100853.81
2022-09-05T02:48:55.064Z,100864.38
2022-09-05T02:57:25.576Z,100865.22
2022-09-05T02:57:34.409Z,100858.56
2022-09-05T02:58:07.090Z,100872.03
2022-09-05T03:00:28.985Z,100862.50
2022-09-05T03:03:15.550Z,100877.94
2022-09-05T03:05:52.747Z,100876.72
2022-09-05T03:08:45.201Z,100874.91
2022-09-05T03:11:54.846Z,100874.97
2022-09-05T03:14:34.937Z,100879.50
2022-09-05T03:17:41.016Z,100888.66
2022-09-05T03:20:51.189Z,100890.56
2022-09-05T03:23:48.951Z,100891.19
2022-09-05T03:26:38.652Z,100898.91
2022-09-05T03:29:30.535Z,100892.25
2022-09-05T03:32:19.292Z,100887.75
2022-09-05T03:35:26.539Z,100881.00
2022-09-05T03:38:12.245Z,100886.28
2022-09-05T03:41:05.725Z,100880.88
2022-09-05T03:43:58.044Z,100887.19
2022-09-05T03:46:47.355Z,100887.75
2022-09-05T03:52:27.418Z,100888.72
2022-09-05T03:57:19.158Z,100883.88
2022-09-05T03:57:23.589Z,100888.72
2022-09-05T03:58:56.861Z,100886.16
2022-09-05T04:04:14.279Z,100882.31
2022-09-05T04:08:13.433Z,100887.53
2022-09-05T04:08:19.032Z,100887.59
2022-09-05T04:10:27.537Z,100893.22
2022-09-05T04:13:01.899Z,100888.78
2022-09-05T04:15:38.747Z,100884.88
2022-09-05T04:18:33.336Z,100895.66
2022-09-05T04:21:09.343Z,100893.22
2022-09-05T04:23:53.816Z,100894.19
2022-09-05T04:26:45.067Z,100896.97
2022-09-05T04:29:23.981Z,100896.63
2022-09-05T04:32:07.487Z,100899.59
2022-09-05T04:35:07.820Z,100899.41
2022-09-05T04:37:48.613Z,100895.50
2022-09-05T04:40:58.314Z,100896.25
2022-09-05T04:43:32.257Z,100886.38
2022-09-05T04:46:10.182Z,100896.25
2022-09-05T04:48:47.234Z,100893.56
2022-09-05T04:51:44.137Z,100898.13
2022-09-05T04:54:30.507Z,100906.28
2022-09-05T04:57:13.918Z,100913.72
2022-09-05T05:06:05.088Z,100914.22
2022-09-05T05:06:15.297Z,100913.56
2022-09-05T05:06:17.346Z,100919.63
2022-09-05T05:08:38.675Z,100918.56
2022-09-05T05:16:17.273Z,100923.00
2022-09-05T05:17:58.023Z,100929.56
2022-09-05T05:18:15.637Z,100941.72
2022-09-05T05:20:40.190Z,100936.56
2022-09-05T05:23:07.570Z,100933.53
2022-09-05T05:25:48.495Z,100932.13
2022-09-05T05:28:26.613Z,100931.13
2022-09-05T05:31:01.160Z,100938.34
2022-09-05T05:33:34.627Z,100936.78
2022-09-05T05:36:07.925Z,100930.94
2022-09-05T05:38:46.493Z,100933.50
2022-09-05T05:41:22.146Z,100925.56
2022-09-05T05:43:51.937Z,100931.94
2022-09-05T05:46:31.669Z,100937.53
2022-09-05T05:49:27.366Z,100943.28
2022-09-05T05:52:13.587Z,100952.63
2022-09-05T05:54:51.983Z,100949.09
2022-09-05T05:57:59.161Z,100947.19
2022-09-05T06:00:52.085Z,100959.81
2022-09-05T06:03:47.088Z,100962.16
2022-09-05T06:06:24.803Z,100963.94
2022-09-05T06:14:52.457Z,100967.06
2022-09-05T06:15:00.009Z,100967.81
2022-09-05T06:16:49.658Z,100962.50
2022-09-05T06:22:04.793Z,100968.09
2022-09-05T06:23:45.167Z,100964.13
2022-09-05T06:26:40.899Z,100969.78
2022-09-05T06:29:34.561Z,100965.28
2022-09-05T06:32:24.286Z,100971.56
2022-09-05T06:35:13.704Z,100977.56
2022-09-05T06:37:52.251Z,100976.91
2022-09-05T06:40:31.496Z,100973.38
2022-09-05T06:43:23.082Z,100975.91
2022-09-05T06:46:15.920Z,100986.88
2022-09-05T06:49:30.703Z,100981.78
2022-09-05T06:52:37.099Z,100982.00
2022-09-05T06:55:37.470Z,100986.69
2022-09-05T06:58:43.627Z,100985.69
2022-09-05T07:01:17.001Z,100986.69
2022-09-05T07:05:14.791Z,100986.94
2022-09-05T07:07:07.260Z,100980.94
2022-09-05T07:09:57.388Z,100983.38
2022-09-05T07:12:30.238Z,100990.13
2022-09-05T07:15:13.916Z,100987.53
2022-09-05T07:18:10.042Z,100979.66
2022-09-05T07:21:16.481Z,100987.59
2022-09-05T07:24:06.752Z,100989.59
2022-09-05T07:26:52.652Z,100995.88
2022-09-05T07:29:27.975Z,100999.66
2022-09-05T07:31:57.541Z,101004.69
2022-09-05T07:34:29.270Z,101001.22
2022-09-05T07:37:15.877Z,101007.59
2022-09-05T07:39:51.560Z,101009.88
2022-09-05T07:42:32.742Z,101018.53
2022-09-05T07:45:08.464Z,101014.38
2022-09-05T07:47:40.296Z,101011.38
2022-09-05T07:52:23.502Z,101003.31
2022-09-05T07:56:50.434Z,101012.94
2022-09-05T07:56:58.568Z,101015.03
2022-09-05T07:58:49.705Z,101013.38
2022-09-05T08:01:20.305Z,101017.59
2022-09-05T08:03:55.918Z,101014.59
2022-09-05T08:07:20.195Z,101011.03
2022-09-05T08:10:06.979Z,101011.91
2022-09-05T08:12:11.612Z,101009.75
2022-09-05T08:14:52.719Z,101009.63
2022-09-05T08:17:29.883Z,101024.28
2022-09-05T08:20:21.656Z,101010.63
2022-09-05T08:23:00.093Z,101010.91
2022-09-05T08:25:38.917Z,101013.66
2022-09-05T08:28:39.253Z,101013.94
2022-09-05T08:31:14.305Z,101012.22
2022-09-05T08:33:44.043Z,101001.13
2022-09-05T08:36:17.273Z,100998.38
2022-09-05T08:38:47.100Z,100999.91
2022-09-05T08:41:46.441Z,101001.69
2022-09-05T08:46:40.343Z,101001.94
2022-09-05T08:47:19.357Z,100996.13
2022-09-05T08:50:02.707Z,100994.13
2022-09-05T08:52:45.288Z,100983.50
2022-09-05T08:55:22.640Z,100987.41
2022-09-05T08:58:10.624Z,100996.22
2022-09-05T09:00:55.172Z,100992.97
2022-09-05T09:03:31.107Z,100988.69
2022-09-05T09:06:29.949Z,100989.47
2022-09-05T09:09:12.347Z,100987.47
2022-09-05T09:11:45.978Z,100994.47
2022-09-05T09:14:41.470Z,100989.31
2022-09-05T09:17:22.602Z,100983.56
2022-09-05T09:20:04.312Z,100990.84
2022-09-05T09:22:41.716Z,100980.91
2022-09-05T09:25:16.127Z,100984.56
2022-09-05T09:28:49.464Z,100984.91
2022-09-05T09:31:14.724Z,100970.75
2022-09-05T09:33:49.305Z,100981.53
2022-09-05T09:36:49.132Z,100977.59
2022-09-05T09:39:39.286Z,100980.84
2022-09-05T09:42:32.717Z,100980.78
2022-09-05T09:45:28.633Z,100977.41
2022-09-05T09:48:20.847Z,100968.38
2022-09-05T09:51:06.518Z,100966.09
2022-09-05T09:53:49.449Z,100972.28
2022-09-05T09:56:34.409Z,100960.66
2022-09-05T09:59:20.135Z,100967.78
2022-09-05T10:02:29.122Z,100947.59
2022-09-05T10:09:52.525Z,100938.38
2022-09-05T10:10:59.081Z,100943.41
2022-09-05T10:14:49.125Z,100949.91
2022-09-05T10:17:51.707Z,100943.00
2022-09-05T10:21:15.406Z,100950.72
2022-09-05T10:24:18.012Z,100938.34
2022-09-05T10:27:27.470Z,100934.00
2022-09-05T10:30:12.875Z,100926.69
2022-09-05T10:35:10.838Z,100925.28
2022-09-05T10:35:43.975Z,100921.06
2022-09-05T10:38:17.796Z,100913.81
2022-09-05T10:41:21.641Z,100905.44
2022-09-05T10:43:50.158Z,100905.91
2022-09-05T10:46:51.279Z,100901.53
2022-09-05T10:49:27.014Z,100894.53
2022-09-05T10:52:18.034Z,100886.00
2022-09-05T10:55:14.809Z,100885.84
2022-09-05T10:57:57.471Z,100879.25
2022-09-05T11:02:16.482Z,100879.00
2022-09-05T11:03:45.625Z,100875.56
2022-09-05T11:06:24.825Z,100873.72
2022-09-05T11:09:07.623Z,100869.88
2022-09-05T11:11:46.071Z,100859.69
2022-09-05T11:14:36.451Z,100867.38
2022-09-05T11:17:16.396Z,100871.56
2022-09-05T11:19:46.524Z,100858.88
2022-09-05T11:22:23.625Z,100861.78
2022-09-05T11:24:56.850Z,100859.19
2022-09-05T11:27:33.354Z,100849.19
2022-09-05T11:30:06.693Z,100844.78
2022-09-05T11:39:51.960Z,100853.81
2022-09-05T11:39:52.702Z,100858.22
2022-09-05T11:40:10.152Z,100845.94
2022-09-05T11:42:21.594Z,100840.75
2022-09-05T11:45:28.013Z,100835.16
2022-09-05T11:48:26.363Z,100835.88
2022-09-05T11:51:33.854Z,100827.84
2022-09-05T11:54:46.535Z,100825.72
2022-09-05T11:57:35.031Z,100822.16
2022-09-05T12:00:33.390Z,100837.34
2022-09-05T12:03:57.044Z,100823.66
2022-09-05T12:06:37.529Z,100816.97
2022-09-05T12:09:24.560Z,100810.66
2022-09-05T12:12:18.591Z,100816.47
2022-09-05T12:15:11.832Z,100799.78
2022-09-05T12:17:51.993Z,100792.03
2022-09-05T12:20:29.339Z,100807.06
2022-09-05T12:23:02.486Z,100799.22
2022-09-05T12:27:39.513Z,100796.38
2022-09-05T12:29:26.563Z,100799.22
2022-09-05T12:33:32.804Z,100792.75
2022-09-05T12:36:07.679Z,100783.41
2022-09-05T12:41:32.268Z,100783.44
2022-09-05T12:41:35.805Z,100775.38
2022-09-05T12:44:36.981Z,100782.63
2022-09-05T12:45:57.193Z,100782.69
2022-09-05T12:48:38.514Z,100769.72
2022-09-05T12:51:11.042Z,100774.78
2022-09-05T12:53:45.028Z,100771.19
2022-09-05T12:58:34.711Z,100762.56
2022-09-05T13:03:05.723Z,100757.81
2022-09-05T13:03:05.818Z,100765.44
2022-09-05T13:05:10.271Z,100745.16
2022-09-05T13:07:42.816Z,100761.78
2022-09-05T13:12:51.277Z,100753.22
2022-09-05T13:14:58.749Z,100748.91
2022-09-05T13:16:03.410Z,100745.22
2022-09-05T13:18:40.113Z,100743.66
2022-09-05T13:21:13.271Z,100754.44
2022-09-05T13:23:50.546Z,100748.88
2022-09-05T13:26:25.332Z,100746.78
2022-09-05T13:29:09.790Z,100742.81
2022-09-05T13:38:02.935Z,100735.13
2022-09-05T13:38:11.508Z,100739.28
2022-09-05T13:38:12.465Z,100724.41
2022-09-05T13:40:40.430Z,100734.56
2022-09-05T13:43:11.792Z,100721.84
2022-09-05T13:46:03.429Z,100731.13
2022-09-05T13:51:37.871Z,100722.69
2022-09-05T13:54:28.042Z,100730.69
2022-09-05T13:57:17.068Z,100726.78
2022-09-05T14:00:38.254Z,100722.44
2022-09-05T14:04:00.596Z,100717.78
2022-09-05T14:07:44.098Z,100723.06
2022-09-05T14:10:03.080Z,100713.19
2022-09-05T14:12:39.289Z,100710.81
2022-09-05T14:15:27.122Z,100705.56
2022-09-05T14:18:20.361Z,100698.47
2022-09-05T14:21:11.883Z,100704.94
2022-09-05T14:23:53.490Z,100691.13
2022-09-05T14:26:28.459Z,100692.66
2022-09-05T14:29:05.081Z,100693.91
2022-09-05T14:37:38.656Z,100691.31
2022-09-05T14:37:43.109Z,100683.25
2022-09-05T14:38:09.278Z,100682.81
2022-09-05T14:41:28.377Z,100693.13
2022-09-05T14:44:20.291Z,100682.97
2022-09-05T14:47:07.326Z,100687.84
2022-09-05T14:50:07.133Z,100683.75
2022-09-05T14:52:43.510Z,100678.03
2022-09-05T15:02:43.096Z,100680.19
2022-09-05T15:02:54.799Z,100678.06
2022-09-05T15:06:37.804Z,100673.31
2022-09-05T15:12:18.011Z,100670.50
2022-09-05T15:12:27.593Z,100675.59
2022-09-05T15:14:56.012Z,100670.56
2022-09-05T15:17:26.882Z,100663.38
2022-09-05T15:20:05.882Z,100663.38
2022-09-05T15:22:37.645Z,100656.22
2022-09-05T15:25:18.510Z,100656.91
2022-09-05T15:27:47.962Z,100650.47
2022-09-05T15:30:20.460Z,100651.91
2022-09-05T15:32:50.520Z,100647.56
2022-09-05T15:35:37.533Z,100635.97
2022-09-05T15:38:21.859Z,100624.34
2022-09-05T15:41:03.780Z,100633.59
2022-09-05T15:43:32.001Z,100625.00
2022-09-05T15:46:04.009Z,100615.94
2022-09-05T15:48:36.176Z,100623.03
2022-09-05T15:51:18.370Z,100625.56
2022-09-05T15:53:52.195Z,100615.31
2022-09-05T15:56:25.118Z,100614.41
2022-09-05T15:58:56.938Z,100603.72
2022-09-05T16:01:52.339Z,100600.88
2022-09-05T16:10:31.079Z,100605.19
2022-09-05T16:10:35.227Z,100604.75
2022-09-05T16:10:48.477Z,100607.00
2022-09-05T16:13:00.113Z,100606.50
2022-09-05T16:18:10.372Z,100604.97
2022-09-05T16:23:24.296Z,100595.19
2022-09-05T16:23:28.089Z,100596.53
2022-09-05T16:24:15.806Z,100593.19
2022-09-05T16:26:51.173Z,100601.31
2022-09-05T16:29:26.490Z,100586.22
2022-09-05T16:32:11.073Z,100591.84
2022-09-05T16:34:47.152Z,100578.63
2022-09-05T16:37:20.207Z,100581.28
2022-09-05T16:39:53.299Z,100582.50
2022-09-05T16:42:46.936Z,100580.78
2022-09-05T16:45:33.572Z,100592.66
2022-09-05T16:48:26.085Z,100592.44
2022-09-05T16:51:15.052Z,100581.56
2022-09-05T16:53:58.966Z,100577.75
2022-09-05T16:56:34.764Z,100571.97
2022-09-05T16:59:08.086Z,100573.63
2022-09-05T17:02:05.691Z,100581.81
2022-09-05T17:05:02.974Z,100576.41
2022-09-05T17:07:49.737Z,100576.56
2022-09-05T17:10:20.430Z,100572.44
2022-09-05T17:12:52.251Z,100572.00
2022-09-05T17:15:26.099Z,100560.97
2022-09-05T17:18:21.939Z,100564.84
2022-09-05T17:20:51.391Z,100562.06
2022-09-05T17:29:16.980Z,100559.34
2022-09-05T17:29:26.024Z,100555.16
2022-09-05T17:29:50.490Z,100559.38
2022-09-05T17:32:04.421Z,100557.16
2022-09-05T17:34:47.819Z,100553.59
2022-09-05T17:37:41.675Z,100554.25
2022-09-05T17:40:45.387Z,100554.28
2022-09-05T17:43:28.697Z,100549.91
2022-09-05T17:46:13.695Z,100557.63
2022-09-05T17:49:20.048Z,100551.97
2022-09-05T17:52:18.090Z,100552.84
2022-09-05T17:54:49.930Z,100549.78
2022-09-05T17:57:50.297Z,100548.97
2022-09-05T18:01:01.184Z,100560.31
2022-09-05T18:04:17.322Z,100556.13
2022-09-05T18:06:58.894Z,100557.16
2022-09-05T18:10:03.514Z,100568.03
2022-09-05T18:13:31.331Z,100564.50
2022-09-05T18:16:11.508Z,100561.06
2022-09-05T18:21:48.249Z,100576.25
2022-09-05T18:24:24.316Z,100572.19
2022-09-05T18:26:56.049Z,100570.63
2022-09-05T18:29:58.125Z,100580.91
2022-09-05T18:32:41.697Z,100589.94
2022-09-05T18:35:36.532Z,100590.50
2022-09-05T18:38:51.736Z,100587.38
2022-09-05T18:41:20.786Z,100596.41
2022-09-05T18:44:14.091Z,100605.63
2022-09-05T18:46:49.190Z,100594.94
2022-09-05T18:50:21.591Z,100592.00
2022-09-05T18:52:23.816Z,100604.75
2022-09-05T18:56:11.617Z,100602.75
2022-09-05T18:57:49.738Z,100611.41
2022-09-05T19:00:33.333Z,100619.50
2022-09-05T19:03:24.785Z,100611.47
2022-09-05T19:06:34.969Z,100607.69
2022-09-05T19:08:53.595Z,100601.56
2022-09-05T19:11:28.387Z,100606.03
2022-09-05T19:14:25.362Z,100602.91
2022-09-05T19:16:49.658Z,100600.13
2022-09-05T19:19:24.330Z,100600.03
2022-09-05T19:22:45.161Z,100597.50
2022-09-05T19:24:46.482Z,100588.47
2022-09-05T19:30:48.968Z,100587.09
2022-09-05T19:36:47.059Z,100582.41
2022-09-05T19:37:03.966Z,100584.31
2022-09-05T19:37:13.089Z,100577.00
2022-09-05T19:39:36.248Z,100586.22
2022-09-05T19:47:28.823Z,100578.41
2022-09-05T19:47:40.431Z,100582.44
2022-09-05T19:47:56.657Z,100578.56
2022-09-05T19:50:20.697Z,100580.13
2022-09-05T19:52:52.872Z,100570.72
2022-09-05T19:55:24.685Z,100577.72
2022-09-05T19:58:19.498Z,100572.38
2022-09-05T20:00:49.024Z,100567.59
2022-09-05T20:03:39.587Z,100570.22
2022-09-05T20:06:29.041Z,100571.13
2022-09-05T20:09:10.937Z,100564.16
2022-09-05T20:11:46.282Z,100553.00
2022-09-05T20:14:23.898Z,100560.28
2022-09-05T20:16:55.966Z,100553.81
2022-09-05T20:19:28.767Z,100559.75
2022-09-05T20:22:14.301Z,100560.38
2022-09-05T20:24:49.114Z,100555.91
2022-09-05T20:27:18.848Z,100555.16
2022-09-05T20:29:55.708Z,100549.63
2022-09-05T20:32:38.973Z,100548.81
2022-09-05T20:40:06.786Z,100546.53
2022-09-05T20:43:16.799Z,100559.38
2022-09-05T20:43:31.861Z,100556.53
2022-09-05T20:43:57.571Z,100556.22
2022-09-05T20:48:26.712Z,100549.84
2022-09-05T20:54:08.045Z,100546.59
2022-09-05T20:54:12.982Z,100552.34
2022-09-05T20:55:38.293Z,100556.72
2022-09-05T20:57:50.762Z,100552.47
2022-09-05T21:00:23.307Z,100561.09
2022-09-05T21:02:54.589Z,100558.69
2022-09-05T21:05:29.763Z,100564.09
2022-09-05T21:08:25.796Z,100557.75
2022-09-05T21:10:56.527Z,100567.16
2022-09-05T21:13:27.519Z,100567.41
2022-09-05T21:15:57.852Z,100565.94
2022-09-05T21:18:33.408Z,100559.25
2022-09-05T21:21:28.655Z,100577.06
2022-09-05T21:24:15.938Z,100565.34
2022-09-05T21:26:45.371Z,100572.38
2022-09-05T21:29:17.429Z,100567.88
2022-09-05T21:31:54.906Z,100573.41
2022-09-05T21:34:27.950Z,100568.56
2022-09-05T21:37:06.621Z,100560.78
2022-09-05T21:39:40.141Z,100551.03
2022-09-05T21:45:35.368Z,100555.69
2022-09-05T21:47:40.213Z,100556.91
2022-09-05T21:47:53.728Z,100553.06
2022-09-05T21:50:31.618Z,100549.31
2022-09-05T21:54:28.029Z,100550.00
2022-09-05T21:59:22.792Z,100547.47
2022-09-05T21:59:27.448Z,100537.13
2022-09-05T22:01:37.507Z,100542.19
2022-09-05T22:04:21.664Z,100540.25
2022-09-05T22:06:50.149Z,100541.38
2022-09-05T22:09:19.031Z,100541.06
2022-09-05T22:11:50.151Z,100535.31
2022-09-05T22:14:19.156Z,100530.66
2022-09-05T22:16:50.332Z,100534.84
2022-09-05T22:19:26.201Z,100533.53
2022-09-05T22:22:15.435Z,100524.88
2022-09-05T22:24:47.136Z,100524.03
2022-09-05T22:27:15.580Z,100519.66
2022-09-05T22:29:44.851Z,100521.63
2022-09-05T22:32:17.030Z,100516.47
2022-09-05T22:34:55.531Z,100507.59
2022-09-05T22:37:23.619Z,100507.97
2022-09-05T22:39:51.748Z,100511.13
2022-09-05T22:42:19.909Z,100512.34
2022-09-05T22:44:48.081Z,100512.72
2022-09-05T22:47:16.053Z,100509.88
2022-09-05T22:49:44.100Z,100508.81
2022-09-05T22:52:13.591Z,100512.47
2022-09-05T22:54:41.679Z,100501.97
2022-09-05T22:57:09.664Z,100507.78
2022-09-05T22:59:37.722Z,100514.50
2022-09-05T23:02:05.767Z,100520.25
2022-09-05T23:04:33.942Z,100505.69
2022-09-05T23:07:03.339Z,100510.13
2022-09-05T23:09:32.644Z,100507.91
2022-09-05T23:12:01.195Z,100513.78
2022-09-05T23:14:29.249Z,100509.66
2022-09-05T23:16:57.290Z,100514.53
2022-09-05T23:19:25.407Z,100514.31
2022-09-05T23:21:53.498Z,100522.09
2022-09-05T23:24:21.807Z,100520.03
2022-09-05T23:26:51.131Z,100514.31
2022-09-05T23:29:19.131Z,100517.59
2022-09-05T23:31:47.633Z,100528.59
2022-09-05T23:34:15.568Z,100529.44
2022-09-05T23:36:43.602Z,100524.56
2022-09-05T23:39:11.744Z,100523.34
2022-09-05T23:41:39.760Z,100519.28
2022-09-05T23:44:09.149Z,100514.53
2022-09-05T23:46:37.825Z,100519.03
2022-09-05T23:49:06.051Z,100514.75
2022-09-05T23:51:34.064Z,100518.78
2022-09-05T23:54:02.141Z,100507.78
2022-09-05T23:56:30.223Z,100510.34
2022-09-05T23:58:58.203Z,100514.97
